Time;durP1;ratioP1;P1;durP2;ratioP2;P2;SDS_P1;SDS_P2;PMS_P1;PMS_P2;Temp;Humidity;BMP_temperature;BMP_pressure;BME280_temperature;BME280_humidity;BME280_pressure;Samples;Min_cycle;Max_cycle;Signal;HPM_P1;HPM_P2
2023/03/07 00:00:39;;;;;;;8.93;3.07;;;;;;;-142.37;100.00;59669.53;5094305;28;20035;-63
2023/03/07 00:03:05;;;;;;;9.07;3.20;;;;;;;-142.37;100.00;59669.53;5094232;28;20507;-61
2023/03/07 00:05:31;;;;;;;13.07;3.77;;;;;;;-142.37;100.00;59669.53;5095367;28;20028;-60
2023/03/07 00:07:59;;;;;;;16.37;4.17;;;;;;;-142.37;100.00;59669.53;5095723;28;20107;-62
2023/03/07 00:10:25;;;;;;;8.03;4.10;;;;;;;-142.37;100.00;59669.53;5095433;28;20400;-63
2023/03/07 00:12:51;;;;;;;9.93;4.10;;;;;;;-142.37;100.00;59669.53;5094287;28;20024;-62
2023/03/07 00:15:17;;;;;;;9.70;3.80;;;;;;;-142.37;100.00;59669.53;5093955;28;20024;-61
2023/03/07 00:17:42;;;;;;;13.13;3.47;;;;;;;-142.37;100.00;59669.53;5095356;28;20032;-61
2023/03/07 00:20:15;;;;;;;6.90;3.20;;;;;;;-142.37;100.00;59669.53;5093861;28;20390;-63
2023/03/07 00:22:42;;;;;;;9.47;3.27;;;;;;;-142.37;100.00;59669.53;5094910;28;20058;-63
2023/03/07 00:25:08;;;;;;;11.50;3.10;;;;;;;-142.37;100.00;59669.53;5093701;28;20032;-62
2023/03/07 00:27:35;;;;;;;5.23;2.60;;;;;;;-142.37;100.00;59669.53;5095014;28;20107;-63
2023/03/07 00:30:03;;;;;;;9.80;3.33;;;;;;;-142.37;100.00;59669.53;5095259;28;20039;-63
2023/03/07 00:32:28;;;;;;;8.80;3.40;;;;;;;-142.37;100.00;59669.53;5093662;28;20119;-62
2023/03/07 00:34:57;;;;;;;11.23;3.57;;;;;;;-142.37;100.00;59669.53;5093692;28;20115;-61
2023/03/07 00:37:23;;;;;;;9.30;3.40;;;;;;;-142.37;100.00;59669.53;5093420;28;20396;-63
2023/03/07 00:39:49;;;;;;;10.23;4.30;;;;;;;-142.37;100.00;59669.53;5095214;28;20036;-61
2023/03/07 00:42:14;;;;;;;13.77;4.63;;;;;;;-142.37;100.00;59669.53;5094699;28;20545;-61
2023/03/07 00:44:40;;;;;;;13.20;4.13;;;;;;;-142.37;100.00;59669.53;5093242;28;20494;-63
2023/03/07 00:47:06;;;;;;;12.97;5.67;;;;;;;-142.37;100.00;59669.53;5094384;28;20032;-61
2023/03/07 00:49:32;;;;;;;23.33;6.57;;;;;;;-142.37;100.00;59669.53;5094451;28;20056;-62
2023/03/07 00:51:57;;;;;;;18.23;6.50;;;;;;;-142.37;100.00;59669.53;5092679;28;20020;-62
2023/03/07 00:54:23;;;;;;;11.80;5.90;;;;;;;-142.37;100.00;59669.53;5094440;28;20028;-61
2023/03/07 00:56:49;;;;;;;16.87;5.97;;;;;;;-142.37;100.00;59669.53;5093231;28;20035;-62
2023/03/07 00:59:15;;;;;;;15.20;5.50;;;;;;;-142.37;100.00;59669.53;5094937;28;20427;-63
2023/03/07 01:01:40;;;;;;;18.80;5.83;;;;;;;-142.37;100.00;59669.53;5094360;28;20507;-62
2023/03/07 01:04:06;;;;;;;16.27;5.97;;;;;;;-142.37;100.00;59669.53;5094894;28;20024;-61
2023/03/07 01:06:33;;;;;;;17.03;5.30;;;;;;;-142.37;100.00;59669.53;5094214;28;20476;-61
2023/03/07 01:09:03;;;;;;;17.10;6.60;;;;;;;-142.37;100.00;59669.53;5092591;28;20028;-62
2023/03/07 01:11:30;;;;;;;14.10;5.37;;;;;;;-142.37;100.00;59669.53;5094597;28;20132;-61
2023/03/07 01:13:58;;;;;;;16.50;5.17;;;;;;;-142.37;100.00;59669.53;5094091;28;20031;-64
2023/03/07 01:16:27;;;;;;;8.67;5.23;;;;;;;-142.37;100.00;59669.53;5093134;28;20028;-63
2023/03/07 01:18:55;;;;;;;14.13;5.87;;;;;;;-142.37;100.00;59669.53;5094467;28;20070;-62
2023/03/07 01:21:24;;;;;;;16.43;5.77;;;;;;;-142.37;100.00;59669.53;5094706;28;20093;-62
2023/03/07 01:23:51;;;;;;;11.33;4.90;;;;;;;-142.37;100.00;59669.53;5093020;28;20031;-61
2023/03/07 01:26:19;;;;;;;15.03;6.97;;;;;;;-142.37;100.00;59669.53;5093988;28;20078;-62
2023/03/07 01:28:45;;;;;;;15.53;6.30;;;;;;;-142.37;100.00;59669.53;5093143;28;20027;-62
2023/03/07 01:31:11;;;;;;;16.47;6.00;;;;;;;-142.37;100.00;59669.53;5094580;28;20027;-64
2023/03/07 01:33:37;;;;;;;12.67;4.83;;;;;;;-142.37;100.00;59669.53;5094818;28;20481;-65
2023/03/07 01:36:04;;;;;;;13.63;5.97;;;;;;;-142.37;100.00;59669.53;5093723;28;20035;-62
2023/03/07 01:38:32;;;;;;;14.50;5.50;;;;;;;-142.37;100.00;59669.53;5094156;28;20023;-66
2023/03/07 01:41:01;;;;;;;13.07;5.60;;;;;;;-142.37;100.00;59669.53;5092428;28;20024;-62
2023/03/07 01:43:33;;;;;;;13.90;6.17;;;;;;;-142.37;100.00;59669.53;5093850;28;20024;-66
2023/03/07 01:46:17;;;;;;;12.57;5.77;;;;;;;-142.37;100.00;59669.53;5093196;28;20550;-63
2023/03/07 01:49:11;;;;;;;13.83;5.90;;;;;;;-142.37;100.00;59669.53;5092970;28;20028;-63
2023/03/07 01:51:39;;;;;;;12.33;5.93;;;;;;;-142.37;100.00;59669.53;5093510;28;20080;-62
2023/03/07 01:54:08;;;;;;;12.50;5.73;;;;;;;-142.37;100.00;59669.53;5093458;28;20468;-63
2023/03/07 01:56:36;;;;;;;12.37;5.80;;;;;;;-142.37;100.00;59669.53;5092045;28;20461;-62
2023/03/07 01:59:03;;;;;;;12.47;5.43;;;;;;;-142.37;100.00;59669.53;5091884;28;20067;-63
2023/03/07 02:01:28;;;;;;;15.00;5.73;;;;;;;-142.37;100.00;59669.53;5093511;28;20425;-63
2023/03/07 02:04:00;;;;;;;10.00;4.97;;;;;;;-142.37;100.00;59669.53;5091578;28;20150;-62
2023/03/07 02:06:30;;;;;;;9.77;4.90;;;;;;;-142.37;100.00;59669.53;5093094;28;20058;-62
2023/03/07 02:08:57;;;;;;;11.07;5.60;;;;;;;-142.37;100.00;59669.53;5093034;28;20032;-63
2023/03/07 02:11:23;;;;;;;14.10;6.53;;;;;;;-142.37;100.00;59669.53;5091707;28;20404;-62
2023/03/07 02:13:50;;;;;;;15.23;6.50;;;;;;;-142.37;100.00;59669.53;5093219;28;20031;-60
2023/03/07 02:16:16;;;;;;;9.37;5.23;;;;;;;-142.37;100.00;59669.53;5094208;28;20575;-63
2023/03/07 02:18:48;;;;;;;14.80;6.30;;;;;;;-142.37;100.00;59669.53;5094354;28;20109;-61
2023/03/07 02:21:29;;;;;;;13.90;5.80;;;;;;;-142.37;100.00;59669.53;5092538;28;20107;-61
2023/03/07 02:24:15;;;;;;;14.00;5.73;;;;;;;-142.37;100.00;59669.53;5092932;28;20027;-61
2023/03/07 02:26:46;;;;;;;11.63;5.20;;;;;;;-142.37;100.00;59669.53;5092068;28;20500;-60
2023/03/07 02:29:13;;;;;;;8.63;5.17;;;;;;;-142.37;100.00;59669.53;5092800;28;20055;-61
2023/03/07 02:31:41;;;;;;;11.57;5.43;;;;;;;-142.37;100.00;59669.53;5093351;28;20040;-61
2023/03/07 02:34:25;;;;;;;16.43;6.77;;;;;;;-142.37;100.00;59669.53;5093385;28;20035;-61
2023/03/07 02:36:57;;;;;;;14.97;6.27;;;;;;;-142.37;100.00;59669.53;5092957;28;20036;-62
2023/03/07 02:39:25;;;;;;;15.10;5.67;;;;;;;-142.37;100.00;59669.53;5091386;28;20434;-61
2023/03/07 02:41:54;;;;;;;15.70;6.13;;;;;;;-142.37;100.00;59669.53;5092865;28;20020;-62
2023/03/07 02:44:20;;;;;;;12.97;5.27;;;;;;;-142.37;100.00;59669.53;5093083;28;20047;-68
2023/03/07 02:46:46;;;;;;;11.80;5.17;;;;;;;-142.37;100.00;59669.53;5092754;28;20044;-62
2023/03/07 02:49:12;;;;;;;11.60;5.13;;;;;;;-142.37;100.00;59669.53;5092910;28;20024;-62
2023/03/07 02:51:38;;;;;;;9.30;4.87;;;;;;;-142.37;100.00;59669.53;5091474;28;20416;-61
2023/03/07 02:54:05;;;;;;;10.90;4.83;;;;;;;-142.37;100.00;59669.53;5091035;28;20031;-62
2023/03/07 02:56:31;;;;;;;13.27;5.50;;;;;;;-142.37;100.00;59669.53;5090989;28;20032;-61
2023/03/07 02:58:56;;;;;;;10.53;4.63;;;;;;;-142.37;100.00;59669.53;5092705;28;20101;-61
2023/03/07 03:01:22;;;;;;;9.87;5.27;;;;;;;-142.37;100.00;59669.53;5091483;28;20024;-62
2023/03/07 03:03:48;;;;;;;7.50;3.93;;;;;;;-142.37;100.00;59669.53;5092417;28;20077;-60
2023/03/07 03:06:14;;;;;;;10.17;3.50;;;;;;;-142.37;100.00;59669.53;5091446;28;20571;-61
2023/03/07 03:08:39;;;;;;;10.63;4.37;;;;;;;-142.37;100.00;59669.53;5095298;28;20027;-65
2023/03/07 03:11:05;;;;;;;11.27;4.10;;;;;;;-142.37;100.00;59669.53;5095127;28;20039;-64
2023/03/07 03:13:30;;;;;;;9.97;4.27;;;;;;;-142.37;100.00;59669.53;5093907;28;20086;-62
2023/03/07 03:15:56;;;;;;;13.77;4.20;;;;;;;-142.37;100.00;59669.53;5096664;28;20574;-64
2023/03/07 03:18:26;;;;;;;12.13;4.93;;;;;;;-142.37;100.00;59669.53;5096867;28;20044;-62
2023/03/07 03:20:51;;;;;;;8.73;3.87;;;;;;;-142.37;100.00;59669.53;5096977;28;20120;-63
2023/03/07 03:23:17;;;;;;;11.10;4.07;;;;;;;-142.37;100.00;59669.53;5097447;28;20059;-63
2023/03/07 03:25:43;;;;;;;11.47;4.93;;;;;;;-142.37;100.00;59669.53;5097566;28;20103;-62
2023/03/07 03:28:08;;;;;;;8.97;4.37;;;;;;;-142.37;100.00;59669.53;5097088;28;20038;-62
2023/03/07 03:30:34;;;;;;;13.77;5.07;;;;;;;-142.37;100.00;59669.53;5094694;28;20028;-62
2023/03/07 03:33:01;;;;;;;10.87;4.80;;;;;;;-142.37;100.00;59669.53;5095965;28;20020;-62
2023/03/07 03:35:28;;;;;;;10.03;4.87;;;;;;;-142.37;100.00;59669.53;5094804;28;20063;-63
2023/03/07 03:37:54;;;;;;;9.00;3.97;;;;;;;-142.37;100.00;59669.53;5094629;28;20028;-62
2023/03/07 03:40:20;;;;;;;12.20;3.97;;;;;;;-142.37;100.00;59669.53;5096049;28;20016;-62
2023/03/07 03:42:46;;;;;;;15.77;5.37;;;;;;;-142.37;100.00;59669.53;5096024;28;20028;-63
2023/03/07 03:45:13;;;;;;;8.73;4.33;;;;;;;-142.37;100.00;59669.53;5095635;28;20032;-59
2023/03/07 03:47:39;;;;;;;12.20;5.57;;;;;;;-142.37;100.00;59669.53;5096111;28;20492;-63
2023/03/07 03:50:06;;;;;;;12.83;5.13;;;;;;;-142.37;100.00;59669.53;5094873;28;20480;-62
2023/03/07 03:52:31;;;;;;;16.33;4.87;;;;;;;-142.37;100.00;59669.53;5097103;28;20031;-68
2023/03/07 03:54:57;;;;;;;13.77;5.40;;;;;;;-142.37;100.00;59669.53;5095346;28;20391;-60
2023/03/07 03:57:23;;;;;;;18.47;4.97;;;;;;;-142.37;100.00;59669.53;5095728;28;20077;-63
2023/03/07 03:59:50;;;;;;;11.07;4.53;;;;;;;-142.37;100.00;59669.53;5094603;28;20065;-62
2023/03/07 04:02:15;;;;;;;15.17;5.70;;;;;;;-142.37;100.00;59669.53;5095708;28;20392;-62
2023/03/07 04:04:41;;;;;;;13.03;3.93;;;;;;;-142.37;100.00;59669.53;5095634;28;20024;-62
2023/03/07 04:07:07;;;;;;;12.70;4.93;;;;;;;-142.37;100.00;59669.53;5095539;28;20376;-62
2023/03/07 04:09:32;;;;;;;13.77;4.60;;;;;;;-142.37;100.00;59669.53;5094149;28;20074;-62
2023/03/07 04:11:58;;;;;;;10.20;3.53;;;;;;;-142.37;100.00;59669.53;5095356;28;20024;-67
2023/03/07 04:14:24;;;;;;;10.27;4.87;;;;;;;-142.37;100.00;59669.53;5096143;28;20039;-65
2023/03/07 04:16:49;;;;;;;12.90;4.33;;;;;;;-142.37;100.00;59669.53;5094962;28;20031;-63
2023/03/07 04:19:15;;;;;;;10.80;3.50;;;;;;;-142.37;100.00;59669.53;5093794;28;20308;-63
2023/03/07 04:21:40;;;;;;;12.30;4.23;;;;;;;-142.37;100.00;59669.53;5093910;28;20066;-65
2023/03/07 04:24:07;;;;;;;11.00;4.03;;;;;;;-142.37;100.00;59669.53;5095295;28;20077;-61
2023/03/07 04:26:34;;;;;;;12.83;5.20;;;;;;;-142.37;100.00;59669.53;5092726;28;20118;-62
2023/03/07 04:29:00;;;;;;;10.03;3.90;;;;;;;-142.37;100.00;59669.53;5093935;28;20052;-64
2023/03/07 04:31:27;;;;;;;18.00;5.53;;;;;;;-142.37;100.00;59669.53;5095320;28;20036;-63
2023/03/07 04:33:55;;;;;;;15.40;4.17;;;;;;;-142.37;100.00;59669.53;5095322;28;20427;-62
2023/03/07 04:36:22;;;;;;;8.40;3.93;;;;;;;-142.37;100.00;59669.53;5095579;28;20028;-63
2023/03/07 04:38:48;;;;;;;10.30;4.47;;;;;;;-142.37;100.00;59669.53;5094161;28;20365;-70
2023/03/07 04:41:17;;;;;;;10.60;3.90;;;;;;;-142.37;100.00;59669.53;5094275;28;20031;-65
2023/03/07 04:43:43;;;;;;;12.27;4.23;;;;;;;-142.37;100.00;59669.53;5094263;28;20028;-62
2023/03/07 04:46:11;;;;;;;13.23;3.77;;;;;;;-142.37;100.00;59669.53;5096090;28;20028;-63
2023/03/07 04:48:36;;;;;;;9.80;4.13;;;;;;;-142.37;100.00;59669.53;5096817;28;20031;-64
2023/03/07 04:51:04;;;;;;;10.80;3.93;;;;;;;-142.37;100.00;59669.53;5096096;28;20072;-62
2023/03/07 04:53:30;;;;;;;12.33;5.23;;;;;;;-142.37;100.00;59669.53;5095853;28;20112;-65
2023/03/07 04:56:00;;;;;;;13.33;3.97;;;;;;;-142.37;100.00;59669.53;5097615;28;20024;-63
2023/03/07 04:58:27;;;;;;;10.10;3.97;;;;;;;-142.37;100.00;59669.53;5095529;28;20032;-68
2023/03/07 05:00:55;;;;;;;11.67;4.43;;;;;;;-142.37;100.00;59669.53;5096224;28;20059;-65
2023/03/07 05:03:21;;;;;;;14.37;4.47;;;;;;;-142.37;100.00;59669.53;5094471;28;20020;-63
2023/03/07 05:05:47;;;;;;;14.63;4.60;;;;;;;-142.37;100.00;59669.53;5094152;28;20452;-66
2023/03/07 05:08:13;;;;;;;12.87;4.10;;;;;;;-142.37;100.00;59669.53;5095275;28;20106;-60
2023/03/07 05:10:39;;;;;;;16.60;5.67;;;;;;;-142.37;100.00;59669.53;5094829;28;20028;-62
2023/03/07 05:13:04;;;;;;;16.83;4.10;;;;;;;-142.37;100.00;59669.53;5094175;28;20024;-63
2023/03/07 05:15:30;;;;;;;15.33;3.70;;;;;;;-142.37;100.00;59669.53;5094312;28;20028;-60
2023/03/07 05:17:56;;;;;;;17.07;4.90;;;;;;;-142.37;100.00;59669.53;5095271;28;20035;-64
2023/03/07 05:20:22;;;;;;;14.60;4.20;;;;;;;-142.37;100.00;59669.53;5095165;28;20048;-64
2023/03/07 05:22:48;;;;;;;14.83;4.23;;;;;;;-142.37;100.00;59669.53;5094758;28;20496;-62
2023/03/07 05:25:14;;;;;;;13.27;4.23;;;;;;;-142.37;100.00;59669.53;5094397;28;20031;-64
2023/03/07 05:27:40;;;;;;;13.00;4.37;;;;;;;-142.37;100.00;59669.53;5094149;28;20020;-66
2023/03/07 05:30:07;;;;;;;16.30;4.93;;;;;;;-142.37;100.00;59669.53;5095381;28;20032;-63
2023/03/07 05:32:32;;;;;;;12.43;4.60;;;;;;;-142.37;100.00;59669.53;5077884;28;20028;-64
2023/03/07 05:34:58;;;;;;;11.60;4.17;;;;;;;-142.37;100.00;59669.53;5093598;28;20031;-63
2023/03/07 05:37:24;;;;;;;18.43;5.70;;;;;;;-142.37;100.00;59669.53;5093831;28;20032;-64
2023/03/07 05:39:49;;;;;;;18.30;4.50;;;;;;;-142.37;100.00;59669.53;5093870;28;20028;-64
2023/03/07 05:42:15;;;;;;;10.87;4.13;;;;;;;-142.37;100.00;59669.53;5093877;28;20035;-63
2023/03/07 05:44:41;;;;;;;16.57;4.83;;;;;;;-142.37;100.00;59669.53;5092554;28;20164;-63
2023/03/07 05:47:07;;;;;;;10.70;4.23;;;;;;;-142.37;100.00;59669.53;5092263;28;20077;-63
2023/03/07 05:49:32;;;;;;;14.40;4.40;;;;;;;-142.37;100.00;59669.53;5093675;28;20020;-63
2023/03/07 05:51:58;;;;;;;19.10;4.90;;;;;;;-142.37;100.00;59669.53;5092543;28;20024;-61
2023/03/07 05:54:24;;;;;;;18.90;4.50;;;;;;;-142.37;100.00;59669.53;5093404;28;20052;-63
2023/03/07 05:56:49;;;;;;;24.60;6.37;;;;;;;-142.37;100.00;59669.53;5093111;28;20396;-63
2023/03/07 05:59:15;;;;;;;27.23;5.80;;;;;;;-142.37;100.00;59669.53;5093096;28;20264;-62
2023/03/07 06:01:42;;;;;;;11.90;4.70;;;;;;;-142.37;100.00;59669.53;5091701;28;20337;-64
2023/03/07 06:04:08;;;;;;;22.60;5.47;;;;;;;-142.37;100.00;59669.53;5091613;28;20032;-64
2023/03/07 06:06:34;;;;;;;14.70;4.50;;;;;;;-142.37;100.00;59669.53;5092832;28;20366;-67
2023/03/07 06:09:00;;;;;;;13.33;4.73;;;;;;;-142.37;100.00;59669.53;5093185;28;20103;-64
2023/03/07 06:11:25;;;;;;;17.57;3.40;;;;;;;-142.37;100.00;59669.53;5091433;28;20027;-64
2023/03/07 06:13:51;;;;;;;12.53;3.80;;;;;;;-142.37;100.00;59669.53;5092314;28;20024;-64
2023/03/07 06:16:17;;;;;;;8.83;4.47;;;;;;;-142.37;100.00;59669.53;5091300;28;20123;-64
2023/03/07 06:18:43;;;;;;;9.23;4.00;;;;;;;-142.37;100.00;59669.53;5092376;28;20052;-64
2023/03/07 06:21:11;;;;;;;8.40;3.50;;;;;;;-142.37;100.00;59669.53;5090670;28;20039;-63
2023/03/07 06:23:38;;;;;;;9.73;3.73;;;;;;;-142.37;100.00;59669.53;5091636;28;20357;-63
2023/03/07 06:26:04;;;;;;;7.63;3.30;;;;;;;-142.37;100.00;59669.53;5091552;28;20035;-65
2023/03/07 06:28:30;;;;;;;7.97;2.70;;;;;;;-142.37;100.00;59669.53;5091402;28;20078;-63
2023/03/07 06:30:56;;;;;;;8.13;2.10;;;;;;;-142.37;100.00;59669.53;5090913;28;20040;-62
2023/03/07 06:33:22;;;;;;;9.40;1.70;;;;;;;-142.37;100.00;59669.53;5092311;28;20035;-63
2023/03/07 06:35:48;;;;;;;17.03;3.70;;;;;;;-142.37;100.00;59669.53;5091814;28;20024;-63
2023/03/07 06:38:15;;;;;;;6.07;1.80;;;;;;;-142.37;100.00;59669.53;5092598;28;20028;-63
2023/03/07 06:40:41;;;;;;;4.13;1.97;;;;;;;-142.37;100.00;59669.53;5094809;28;20431;-64
2023/03/07 06:43:07;;;;;;;4.87;1.80;;;;;;;-142.37;100.00;59669.53;5092657;28;20494;-64
2023/03/07 06:45:33;;;;;;;7.53;1.47;;;;;;;-142.37;100.00;59669.53;5090699;28;20093;-64
2023/03/07 06:47:58;;;;;;;4.20;1.40;;;;;;;-142.37;100.00;59669.53;5090605;28;20474;-63
2023/03/07 06:50:24;;;;;;;5.47;1.43;;;;;;;-142.37;100.00;59669.53;5094876;28;20028;-64
2023/03/07 06:52:50;;;;;;;3.53;1.27;;;;;;;-142.37;100.00;59669.53;5096011;28;20028;-65
2023/03/07 06:55:17;;;;;;;3.97;1.10;;;;;;;-142.37;100.00;59669.53;5095760;28;20067;-64
2023/03/07 06:57:43;;;;;;;5.87;1.50;;;;;;;-142.37;100.00;59669.53;5094441;28;20378;-64
2023/03/07 07:00:10;;;;;;;9.37;1.57;;;;;;;-142.37;100.00;59669.53;5094538;28;20035;-63
2023/03/07 07:02:36;;;;;;;11.80;1.30;;;;;;;-142.37;100.00;59669.53;5094965;28;20028;-64
2023/03/07 07:05:02;;;;;;;4.73;1.20;;;;;;;-142.37;100.00;59669.53;5095395;28;20028;-63
2023/03/07 07:07:28;;;;;;;7.37;1.30;;;;;;;-142.37;100.00;59669.53;5095303;28;20103;-63
2023/03/07 07:09:53;;;;;;;5.60;1.43;;;;;;;-142.37;100.00;59669.53;5093958;28;20405;-64
2023/03/07 07:12:19;;;;;;;7.97;1.17;;;;;;;-142.37;100.00;59669.53;5094106;28;20074;-63
2023/03/07 07:14:45;;;;;;;2.53;0.60;;;;;;;-142.37;100.00;59669.53;5094248;28;20028;-64
2023/03/07 07:17:11;;;;;;;1.20;0.63;;;;;;;-142.37;100.00;59669.53;5092943;28;20067;-62
2023/03/07 07:19:37;;;;;;;4.97;0.87;;;;;;;-142.37;100.00;59669.53;5093754;28;20079;-63
2023/03/07 07:22:02;;;;;;;8.73;1.00;;;;;;;-142.37;100.00;59669.53;5093788;28;20064;-64
2023/03/07 07:24:28;;;;;;;6.03;0.93;;;;;;;-142.37;100.00;59669.53;5095435;28;20031;-63
2023/03/07 07:26:54;;;;;;;5.23;1.23;;;;;;;-142.37;100.00;59669.53;5093900;28;20123;-64
2023/03/07 07:29:21;;;;;;;4.10;1.10;;;;;;;-142.37;100.00;59669.53;5094579;28;20068;-62
2023/03/07 07:31:48;;;;;;;4.10;0.93;;;;;;;-142.37;100.00;59669.53;5093450;28;20031;-60
2023/03/07 07:34:14;;;;;;;7.70;1.20;;;;;;;-142.37;100.00;59669.53;5094355;28;20040;-64
2023/03/07 07:36:40;;;;;;;5.18;0.63;;;;;;;-142.37;100.00;59669.53;5094066;28;20415;-62
2023/03/07 07:39:06;;;;;;;2.90;0.65;;;;;;;-142.37;100.00;59669.53;5094639;28;20032;-62
2023/03/07 07:41:33;;;;;;;4.47;0.73;;;;;;;-142.37;100.00;59669.53;5095101;28;20024;-61
2023/03/07 07:43:59;;;;;;;2.47;1.00;;;;;;;-142.37;100.00;59669.53;5095294;28;20492;-61
2023/03/07 07:46:27;;;;;;;3.28;0.80;;;;;;;-142.37;100.00;59669.53;5094586;28;20449;-61
2023/03/07 07:48:53;;;;;;;8.40;1.27;;;;;;;-142.37;100.00;59669.53;5094429;28;20032;-61
2023/03/07 07:51:19;;;;;;;3.10;1.10;;;;;;;-142.37;100.00;59669.53;5094406;28;20043;-63
2023/03/07 07:53:45;;;;;;;2.13;0.60;;;;;;;-142.37;100.00;59669.53;5094570;28;20024;-62
2023/03/07 07:56:11;;;;;;;3.13;1.15;;;;;;;-142.37;100.00;59669.53;5094519;28;20115;-63
2023/03/07 07:58:37;;;;;;;3.20;0.47;;;;;;;-142.37;100.00;59669.53;5094169;28;20166;-63
2023/03/07 08:01:13;;;;;;;1.52;0.63;;;;;;;-142.37;100.00;59669.53;5092842;28;20476;-63
2023/03/07 08:03:39;;;;;;;2.55;0.63;;;;;;;-142.37;100.00;59669.53;5093433;28;20016;-64
2023/03/07 08:06:05;;;;;;;2.03;0.60;;;;;;;-142.37;100.00;59669.53;5095427;28;20429;-63
2023/03/07 08:08:31;;;;;;;2.70;0.60;;;;;;;-142.37;100.00;59669.53;5095060;28;20461;-62
2023/03/07 08:10:57;;;;;;;5.18;0.70;;;;;;;-142.37;100.00;59669.53;5094237;28;20028;-62
2023/03/07 08:13:22;;;;;;;2.97;1.00;;;;;;;-142.37;100.00;59669.53;5093044;28;20119;-63
2023/03/07 08:15:48;;;;;;;2.05;0.50;;;;;;;-142.37;100.00;59669.53;5093896;28;20396;-62
2023/03/07 08:18:14;;;;;;;2.10;0.82;;;;;;;-142.37;100.00;59669.53;5094078;28;20213;-62
2023/03/07 08:20:40;;;;;;;3.40;0.80;;;;;;;-142.37;100.00;59669.53;5094196;28;20089;-62
2023/03/07 08:23:06;;;;;;;1.92;0.65;;;;;;;-142.37;100.00;59669.53;5093795;28;20020;-63
2023/03/07 08:25:32;;;;;;;6.65;1.38;;;;;;;-142.37;100.00;59669.53;5092875;28;20032;-62
2023/03/07 08:28:00;;;;;;;6.10;0.73;;;;;;;-142.37;100.00;59669.53;5092777;28;20516;-61
2023/03/07 08:30:28;;;;;;;3.60;0.63;;;;;;;-142.37;100.00;59669.53;5093799;28;20020;-63
2023/03/07 08:32:54;;;;;;;4.80;0.80;;;;;;;-142.37;100.00;59669.53;5094624;28;20047;-62
2023/03/07 08:35:23;;;;;;;4.68;1.25;;;;;;;-142.37;100.00;59669.53;5094069;28;20111;-62
2023/03/07 08:37:53;;;;;;;3.47;0.93;;;;;;;-142.37;100.00;59669.53;5093275;28;20499;-64
2023/03/07 08:40:19;;;;;;;2.90;0.40;;;;;;;-142.37;100.00;59669.53;5093790;28;20070;-62
2023/03/07 08:42:45;;;;;;;3.92;1.30;;;;;;;-142.37;100.00;59669.53;5093496;28;20031;-63
2023/03/07 08:45:11;;;;;;;3.30;0.88;;;;;;;-142.37;100.00;59669.53;5092155;28;20341;-62
2023/03/07 08:47:36;;;;;;;3.72;1.10;;;;;;;-142.37;100.00;59669.53;5093479;28;20073;-62
2023/03/07 08:50:03;;;;;;;6.60;0.98;;;;;;;-142.37;100.00;59669.53;5093793;28;20032;-62
2023/03/07 08:52:29;;;;;;;3.13;0.70;;;;;;;-142.37;100.00;59669.53;5092233;28;20035;-62
2023/03/07 08:54:54;;;;;;;1.00;0.35;;;;;;;-142.37;100.00;59669.53;5093695;28;20016;-64
2023/03/07 08:57:20;;;;;;;5.22;1.38;;;;;;;-142.37;100.00;59669.53;5092963;28;20394;-63
2023/03/07 08:59:46;;;;;;;3.40;0.75;;;;;;;-142.37;100.00;59669.53;5092329;28;20061;-63
2023/03/07 09:02:12;;;;;;;3.47;0.88;;;;;;;-142.37;100.00;59669.53;5093984;28;20030;-63
2023/03/07 09:04:38;;;;;;;1.65;0.30;;;;;;;-142.37;100.00;59669.53;5094053;28;20148;-62
2023/03/07 09:07:04;;;;;;;2.05;0.38;;;;;;;-142.37;100.00;59669.53;5093200;28;20434;-62
2023/03/07 09:09:30;;;;;;;2.22;0.43;;;;;;;-142.37;100.00;59669.53;5092361;28;20059;-64
2023/03/07 09:11:56;;;;;;;4.85;0.80;;;;;;;-142.37;100.00;59669.53;5091514;28;20024;-63
2023/03/07 09:14:22;;;;;;;6.38;2.67;;;;;;;-142.37;100.00;59669.53;5092096;28;20028;-63
2023/03/07 09:16:48;;;;;;;6.57;1.58;;;;;;;-142.37;100.00;59669.53;5092981;28;20031;-63
2023/03/07 09:19:14;;;;;;;4.53;0.60;;;;;;;-142.37;100.00;59669.53;5091185;28;20048;-62
2023/03/07 09:21:39;;;;;;;4.00;0.60;;;;;;;-142.37;100.00;59669.53;5092089;28;20032;-63
2023/03/07 09:24:06;;;;;;;1.40;0.40;;;;;;;-142.37;100.00;59669.53;5093708;28;20108;-62
2023/03/07 09:26:32;;;;;;;5.75;0.60;;;;;;;-142.37;100.00;59669.53;5091593;28;20495;-62
2023/03/07 09:28:57;;;;;;;4.65;0.73;;;;;;;-142.37;100.00;59669.53;5092904;28;20024;-63
2023/03/07 09:31:24;;;;;;;5.85;0.50;;;;;;;-142.37;100.00;59669.53;5091537;28;20050;-62
2023/03/07 09:33:50;;;;;;;2.28;0.30;;;;;;;-142.37;100.00;59669.53;5091324;28;20030;-62
2023/03/07 09:36:18;;;;;;;5.03;1.10;;;;;;;-142.37;100.00;59669.53;5091916;28;20028;-61
2023/03/07 09:38:45;;;;;;;4.13;0.32;;;;;;;-142.37;100.00;59669.53;5094573;28;20388;-61
2023/03/07 09:41:33;;;;;;;3.33;0.93;;;;;;;-142.37;100.00;59669.53;5092255;28;20043;-62
2023/03/07 09:44:17;;;;;;;6.47;0.65;;;;;;;-142.37;100.00;59669.53;5094383;28;20024;-63
2023/03/07 09:46:57;;;;;;;5.07;0.10;;;;;;;-142.37;100.00;59669.53;5093815;28;20056;-61
2023/03/07 09:49:51;;;;;;;2.08;0.32;;;;;;;-142.37;100.00;59669.53;5091216;28;20453;-63
2023/03/07 09:52:19;;;;;;;0.43;0.05;;;;;;;-142.37;100.00;59669.53;5092577;28;20036;-62
2023/03/07 09:54:56;;;;;;;5.22;1.60;;;;;;;-142.37;100.00;59669.53;5092566;28;20032;-62
2023/03/07 09:57:27;;;;;;;1.98;0.10;;;;;;;-142.37;100.00;59669.53;5091943;28;20034;-62
2023/03/07 10:00:06;;;;;;;0.00;0.00;;;;;;;-142.37;100.00;59669.53;5092329;28;20020;-63
2023/03/07 10:02:34;;;;;;;2.17;0.00;;;;;;;-142.37;100.00;59669.53;5092786;28;20103;-63
2023/03/07 10:05:27;;;;;;;2.63;0.20;;;;;;;-142.37;100.00;59669.53;5092250;28;20102;-62
2023/03/07 10:07:53;;;;;;;0.22;0.20;;;;;;;-142.37;100.00;59669.53;5091989;28;20062;-62
2023/03/07 10:10:33;;;;;;;0.28;0.10;;;;;;;-142.37;100.00;59669.53;5091995;28;20102;-64
2023/03/07 10:13:07;;;;;;;1.45;0.00;;;;;;;-142.37;100.00;59669.53;5092305;28;20052;-63
2023/03/07 10:15:44;;;;;;;3.42;1.05;;;;;;;-142.37;100.00;59669.53;5090538;28;20107;-63
2023/03/07 10:18:23;;;;;;;8.45;0.43;;;;;;;-142.37;100.00;59669.53;5091805;28;20040;-63
2023/03/07 10:21:19;;;;;;;0.95;0.10;;;;;;;-142.37;100.00;59669.53;5091781;28;20062;-63
2023/03/07 10:24:10;;;;;;;1.05;0.35;;;;;;;-142.37;100.00;59669.53;5090930;28;20093;-62
2023/03/07 10:26:48;;;;;;;1.58;0.22;;;;;;;-142.37;100.00;59669.53;5091928;28;20035;-62
2023/03/07 10:29:18;;;;;;;2.28;0.45;;;;;;;-142.37;100.00;59669.53;5091710;28;20372;-63
2023/03/07 10:31:55;;;;;;;1.02;0.10;;;;;;;-142.37;100.00;59669.53;5091393;28;20024;-63
2023/03/07 10:34:26;;;;;;;3.83;0.45;;;;;;;-142.37;100.00;59669.53;5089879;28;20071;-63
2023/03/07 10:36:59;;;;;;;18.08;1.25;;;;;;;-142.37;100.00;59669.53;5089875;28;20567;-64
2023/03/07 10:39:43;;;;;;;2.55;0.00;;;;;;;-142.37;100.00;59669.53;5090322;28;20032;-62
2023/03/07 10:42:15;;;;;;;4.18;0.40;;;;;;;-142.37;100.00;59669.53;5091877;28;20036;-63
2023/03/07 10:44:44;;;;;;;0.38;0.10;;;;;;;-142.37;100.00;59669.53;5091588;28;20028;-64
2023/03/07 10:47:21;;;;;;;0.30;0.00;;;;;;;-142.37;100.00;59669.53;5091236;28;20032;-63
2023/03/07 10:49:48;;;;;;;3.33;0.17;;;;;;;-142.37;100.00;59669.53;5089764;28;20477;-64
2023/03/07 10:52:34;;;;;;;1.55;0.10;;;;;;;-142.37;100.00;59669.53;5090086;28;20028;-63
2023/03/07 10:55:31;;;;;;;2.22;0.08;;;;;;;-142.37;100.00;59669.53;5089821;28;20039;-63
2023/03/07 10:58:12;;;;;;;7.53;0.40;;;;;;;-142.37;100.00;59669.53;5089633;28;20202;-63
2023/03/07 11:00:38;;;;;;;0.80;0.00;;;;;;;-142.37;100.00;59669.53;5091565;28;20060;-63
2023/03/07 11:03:30;;;;;;;0.60;0.20;;;;;;;-142.37;100.00;59669.53;5091778;28;20054;-63
2023/03/07 11:05:56;;;;;;;5.40;0.47;;;;;;;-142.37;100.00;59669.53;5092755;28;20040;-63
2023/03/07 11:08:28;;;;;;;1.35;0.10;;;;;;;-142.37;100.00;59669.53;5090159;28;20028;-63